Time;durP1;ratioP1;P1;durP2;ratioP2;P2;SDS_P1;SDS_P2;PMS_P1;PMS_P2;Temp;Humidity;BMP_temperature;BMP_pressure;BME280_temperature;BME280_humidity;BME280_pressure;Samples;Min_cycle;Max_cycle;Signal;HPM_P1;HPM_P2
2022/07/15 00:00:13;;;;;;;5.20;2.20;;;;;;;14.93;81.47;100047.89;679301;1279;140104;-83
2022/07/15 00:15:36;;;;;;;5.00;2.90;;;;;;;14.78;82.14;100046.63;679014;1278;139963;-83
2022/07/15 00:30:41;;;;;;;5.80;2.90;;;;;;;14.44;83.62;100049.75;678904;1278;139486;-82
2022/07/15 00:45:46;;;;;;;5.40;2.00;;;;;;;14.31;83.77;100048.31;678734;1280;140169;-82
2022/07/15 01:00:50;;;;;;;12.10;5.30;;;;;;;14.31;84.59;100035.55;679029;1279;140107;-82
2022/07/15 01:15:54;;;;;;;7.10;3.00;;;;;;;14.39;85.65;100031.62;678845;1278;139739;-82
2022/07/15 01:30:58;;;;;;;5.00;2.80;;;;;;;14.26;87.43;100028.82;678789;1279;140733;-82
2022/07/15 01:46:05;;;;;;;5.10;2.30;;;;;;;14.06;90.38;100027.77;678905;1280;140409;-83
2022/07/15 02:01:11;;;;;;;5.10;2.10;;;;;;;14.28;91.77;100019.65;679171;1278;138784;-83
2022/07/15 02:16:15;;;;;;;3.80;1.90;;;;;;;14.53;92.19;100017.28;678596;1278;140275;-82
2022/07/15 02:31:19;;;;;;;4.60;1.90;;;;;;;14.98;92.36;100030.56;678980;1279;140149;-88
2022/07/15 02:46:22;;;;;;;3.50;1.80;;;;;;;14.91;94.50;100036.96;678875;1279;139838;-87
2022/07/15 03:01:27;;;;;;;3.90;1.80;;;;;;;14.78;98.61;100033.76;678851;1279;139004;-88
2022/07/15 03:16:31;;;;;;;5.30;2.00;;;;;;;14.89;99.37;100035.74;678590;1279;140740;-88
2022/07/15 03:31:34;;;;;;;3.60;1.90;;;;;;;15.01;100.00;100036.90;678526;1278;138674;-88
2022/07/15 03:46:38;;;;;;;4.80;1.90;;;;;;;15.11;100.00;100047.08;678924;1279;139147;-89
2022/07/15 04:01:41;;;;;;;4.60;2.00;;;;;;;15.05;100.00;100056.56;678361;1280;140651;-87
2022/07/15 04:16:45;;;;;;;4.60;1.40;;;;;;;15.17;100.00;100060.19;677847;1280;139303;-88
2022/07/15 04:32:08;;;;;;;4.90;1.80;;;;;;;15.39;100.00;100069.36;679630;1276;139633;-89
2022/07/15 04:47:15;;;;;;;7.90;2.60;;;;;;;15.65;100.00;100065.73;679968;1277;139750;-87
2022/07/15 05:02:24;;;;;;;4.30;2.10;;;;;;;15.83;100.00;100078.87;680095;1277;140020;-86
2022/07/15 05:17:28;;;;;;;6.40;2.00;;;;;;;16.05;100.00;100090.70;680041;1277;139348;-85
2022/07/15 05:32:32;;;;;;;4.60;1.60;;;;;;;16.43;100.00;100100.69;680296;1276;138988;-85
2022/07/15 05:47:38;;;;;;;3.50;1.40;;;;;;;16.77;100.00;100111.02;680620;1276;140156;-86
2022/07/15 06:02:41;;;;;;;4.10;1.40;;;;;;;17.19;99.38;100114.98;680286;1276;138762;-87
2022/07/15 06:17:53;;;;;;;2.80;1.20;;;;;;;17.60;93.95;100123.20;680366;1274;139180;-85
2022/07/15 06:32:58;;;;;;;3.30;1.30;;;;;;;18.21;89.44;100131.93;680545;1277;139488;-86
2022/07/15 06:48:03;;;;;;;3.30;1.60;;;;;;;18.29;86.54;100142.14;680381;1276;309100;-85
2022/07/15 07:03:07;;;;;;;4.40;1.40;;;;;;;18.63;83.68;100152.30;680620;1276;140571;-85
2022/07/15 07:18:11;;;;;;;4.70;1.30;;;;;;;18.65;83.21;100156.45;680472;1275;140561;-85
2022/07/15 07:33:14;;;;;;;5.40;1.70;;;;;;;19.67;76.86;100163.80;680526;1276;140372;-85
2022/07/15 07:48:18;;;;;;;2.60;1.30;;;;;;;19.41;73.37;100179.58;680509;1276;138805;-86
2022/07/15 08:03:22;;;;;;;4.30;1.40;;;;;;;18.98;77.68;100190.42;680185;1276;140991;-86
2022/07/15 08:18:27;;;;;;;7.40;1.20;;;;;;;19.23;74.29;100198.10;680496;1276;139088;-84
2022/07/15 08:33:31;;;;;;;3.70;1.40;;;;;;;19.34;73.25;100209.73;680470;1276;138707;-84
2022/07/15 08:48:37;;;;;;;6.10;1.30;;;;;;;18.92;75.47;100216.11;680652;1276;139275;-84
2022/07/15 09:03:41;;;;;;;6.30;1.40;;;;;;;19.71;73.69;100210.29;680500;1276;140176;-84
2022/07/15 09:18:45;;;;;;;3.10;1.00;;;;;;;19.13;76.77;100225.63;680514;1275;139103;-87
2022/07/15 09:33:57;;;;;;;2.90;1.50;;;;;;;17.83;88.48;100284.45;680535;1276;139029;-90
2022/07/15 09:49:01;;;;;;;5.90;1.60;;;;;;;17.10;99.06;100271.00;680729;1276;138601;-88
2022/07/15 10:04:05;;;;;;;1.60;0.90;;;;;;;18.05;95.00;100258.25;680048;1276;139636;-86
2022/07/15 10:19:30;;;;;;;3.80;1.30;;;;;;;19.53;88.05;100249.80;680526;1275;139289;-84
2022/07/15 10:34:35;;;;;;;4.90;1.30;;;;;;;20.72;77.94;100262.23;680617;1276;139812;-84
2022/07/15 10:49:43;;;;;;;3.20;1.10;;;;;;;20.84;71.17;100258.20;680727;1276;139018;-84
2022/07/15 11:04:51;;;;;;;11.20;6.40;;;;;;;21.24;69.22;100263.29;680682;1276;138498;-83
2022/07/15 11:19:59;;;;;;;7.00;3.30;;;;;;;19.83;75.74;100288.91;680543;1276;139583;-84
2022/07/15 11:35:03;;;;;;;3.80;1.80;;;;;;;19.34;81.95;100294.93;680681;1276;140025;-83
2022/07/15 11:50:07;;;;;;;9.00;1.80;;;;;;;19.52;82.75;100305.17;680375;1276;140150;-83
2022/07/15 12:05:11;;;;;;;8.50;1.80;;;;;;;20.05;78.91;100314.95;680765;1276;138771;-83
2022/07/15 12:20:15;;;;;;;2.70;1.30;;;;;;;20.85;72.59;100311.73;680740;1276;22431;-83
2022/07/15 12:35:20;;;;;;;4.00;1.30;;;;;;;20.42;67.19;100311.63;680585;1277;22522;-84
2022/07/15 12:50:23;;;;;;;3.60;1.30;;;;;;;20.94;62.38;100317.20;679926;1276;138636;-85
2022/07/15 13:05:39;;;;;;;2.80;1.10;;;;;;;20.72;62.50;100326.30;680257;1276;138324;-84
2022/07/15 13:20:43;;;;;;;2.90;1.20;;;;;;;20.89;62.23;100339.45;679779;1274;139512;-85
2022/07/15 13:35:46;;;;;;;3.80;0.90;;;;;;;21.20;59.93;100350.17;680871;1274;22397;-85
2022/07/15 14:06:30;;;;;;;2.20;1.00;;;;;;;21.04;57.96;100355.70;680101;1276;22568;-84
2022/07/15 14:21:34;;;;;;;2.70;1.30;;;;;;;21.66;58.25;100368.23;681013;1275;22452;-84
2022/07/15 14:36:44;;;;;;;2.60;0.90;;;;;;;22.57;57.59;100370.11;681007;1276;22447;-84
2022/07/15 14:52:08;;;;;;;4.00;1.10;;;;;;;22.83;55.05;100373.21;680966;1276;22405;-84
2022/07/15 15:07:11;;;;;;;2.30;1.00;;;;;;;22.86;54.92;100376.78;681091;1276;23060;-85
2022/07/15 15:22:14;;;;;;;3.90;1.10;;;;;;;22.91;55.04;100378.40;680850;1276;22170;-85
2022/07/15 15:37:18;;;;;;;3.20;1.00;;;;;;;22.64;56.22;100383.42;680813;1276;22559;-84
2022/07/15 15:52:24;;;;;;;3.00;1.50;;;;;;;21.88;57.77;100380.70;680738;1276;22577;-87
2022/07/15 16:07:27;;;;;;;4.60;1.60;;;;;;;21.47;58.45;100382.10;680966;1275;22442;-85
2022/07/15 16:37:55;;;;;;;6.20;3.70;;;;;;;21.34;58.11;100394.73;680394;1276;22472;-85
2022/07/15 16:52:58;;;;;;;5.50;1.20;;;;;;;21.65;58.51;100384.45;680725;1276;22447;-85
2022/07/15 17:08:03;;;;;;;5.30;1.50;;;;;;;21.96;58.24;100390.27;680781;1274;22440;-85
2022/07/15 17:23:07;;;;;;;6.30;1.60;;;;;;;21.27;59.11;100392.00;680195;1275;22750;-86
2022/07/15 17:38:11;;;;;;;3.00;1.40;;;;;;;21.02;59.99;100395.11;681265;1274;22461;-83
2022/07/15 17:53:15;;;;;;;6.20;2.30;;;;;;;21.05;59.51;100397.71;681046;1274;22452;-83
2022/07/15 18:08:19;;;;;;;2.50;1.30;;;;;;;20.80;59.60;100400.89;681093;1274;22637;-82
2022/07/15 18:23:23;;;;;;;4.30;1.50;;;;;;;20.39;60.87;100400.64;680950;1274;22615;-83
2022/07/15 18:38:26;;;;;;;4.00;1.40;;;;;;;19.72;63.91;100404.02;680601;1274;138444;-81
2022/07/15 18:53:30;;;;;;;11.70;10.50;;;;;;;19.62;64.80;100413.02;680730;1273;273015;-83
2022/07/15 19:08:33;;;;;;;5.90;3.20;;;;;;;19.34;66.77;100432.98;681021;1274;140403;-83
2022/07/15 19:23:38;;;;;;;26.10;14.90;;;;;;;18.85;68.26;100446.90;681184;1272;139720;-83
2022/07/15 19:38:42;;;;;;;16.10;7.40;;;;;;;18.41;70.50;100454.93;680959;1274;139624;-83
2022/07/15 19:53:45;;;;;;;22.90;8.00;;;;;;;18.01;72.65;100462.50;680050;1275;139248;-82
2022/07/15 20:08:49;;;;;;;10.90;6.20;;;;;;;17.31;73.62;100460.31;681219;1274;139725;-82
2022/07/15 20:23:53;;;;;;;13.60;7.60;;;;;;;16.59;75.91;100461.95;681156;1274;139378;-82
2022/07/15 20:38:56;;;;;;;16.60;9.20;;;;;;;16.20;78.37;100465.46;681256;1274;138903;-82
2022/07/15 20:54:00;;;;;;;14.70;5.90;;;;;;;15.98;79.99;100463.59;681034;1274;138978;-82
2022/07/15 21:09:03;;;;;;;12.40;6.60;;;;;;;15.43;81.93;100462.39;681204;1274;139881;-82
2022/07/15 21:26:43;;;;;;;14.00;5.90;;;;;;;15.07;83.91;100462.63;681162;1272;139027;-82
2022/07/15 21:39:29;;;;;;;10.90;5.30;;;;;;;14.91;86.25;100469.05;681096;1274;140671;-83
2022/07/15 21:54:33;;;;;;;9.30;4.20;;;;;;;14.57;87.70;100471.42;681136;1272;139894;-82
2022/07/15 22:09:36;;;;;;;7.40;3.30;;;;;;;14.41;88.50;100462.00;680930;1274;138959;-82
2022/07/15 22:24:39;;;;;;;6.70;3.20;;;;;;;14.22;89.95;100470.37;680972;1272;139880;-82
2022/07/15 22:39:43;;;;;;;9.80;3.60;;;;;;;13.94;91.62;100466.77;680962;1274;140222;-83
2022/07/15 22:54:46;;;;;;;5.10;3.20;;;;;;;13.76;92.70;100465.45;680763;1274;139281;-82
2022/07/15 23:09:49;;;;;;;11.70;4.00;;;;;;;13.61;93.49;100463.51;680951;1274;140026;-81
2022/07/15 23:24:52;;;;;;;10.10;4.70;;;;;;;13.36;95.43;100469.48;681087;1274;140996;-82
2022/07/15 23:39:55;;;;;;;9.80;3.70;;;;;;;13.38;95.19;100467.17;681333;1274;139814;-82
2022/07/15 23:54:59;;;;;;;7.10;3.20;;;;;;;13.27;96.33;100470.66;680412;1275;139912;-81
